Parkman, Maine
Current Conditions -  °F | °C
As of 4:53 PM on Sunday 23 Nov 2014 (Local Time) from KBGR Reporting Station
Overcast Overcast  
Wind Chill: 46°   Ceiling: 3800
Heat Index: 46°   Visibility: 10mi
Dew Point: 33°   Wind: 3mph
Humidity: 61%   Direction: 60°ENE
Pressure: 30.1"   Gusts: NA
Location:  45.2519°N, 69.3542°W
Report Text: KBGR 232153Z 06003KT 10SM OVC038 08/01 A3010 RMK AO2 SLP193 T00780006
Loading
Personal Weather Stations






























Interactive Weather Map New forecast layout! Learn more

10-Day Weather Forecast

Advertisements
Track Severe Weather on mobile